• Join FlightAware (Why Join?)
  • Login
  • US Flag 
10:51PM EDT


 

Airport Tracker/Info


-or-


 

Live Flight TrackerFlight Track Log ✈ KLM602 ✈ 10-Jul-2013 ✈ KLAX - EHAM / AMS

Flight Track Log - Related Links

Times and Time Zones

All times are in EDT time to prevent confusion due to time zone crossing. See the KLM602 flight status page for this flight to view local times or setup timezone preferences in your user account.

Time Position Orientation Groundspeed Altitude Reporting Facility
EDT Latitude Longitude Course Direction KTS MPH feet Rate Location/Type
05:26PM 33.9430 -118.4690 264° West 188 216 1,300  Level FlightAware
05:26PM 33.9410 -118.4960 265° West 194 223 2,100 1,680 Climbing FlightAware
05:27PM 33.9310 -118.5300 250° West 198 228 3,000 1,560 Climbing FlightAware
05:27PM 33.9240 -118.5340 205° Southwest 197 227 3,200 960 Climbing FlightAware
05:27PM 33.9160 -118.5360 192° South 200 230 3,300 720 Climbing FlightAware
05:28PM 33.8860 -118.5340 177° South 233 268 3,700 960 Climbing FlightAware
05:28PM 33.8580 -118.5300 173° South 252 290 4,200 1,080 Climbing FlightAware
05:29PM 33.8190 -118.5230 172° South 284 327 4,700 1,260 Climbing FlightAware
05:29PM 33.7850 -118.5160 170° South 296 341 5,400 1,500 Climbing FlightAware
05:29PM 33.7650 -118.5130 173° South 308 354 5,700 1,920 Climbing FlightAware
05:30PM 33.7290 -118.5070 172° South 317 365 6,700 2,400 Climbing FlightAware
05:30PM 33.6910 -118.5020 174° South 326 375 7,700 2,400 Climbing FlightAware
05:31PM 33.6480 -118.4890 166° South 331 381 8,900 2,160 Climbing FlightAware
05:31PM 33.6370 -118.4790 143° Southeast 336 387 9,200 1,920 Climbing FlightAware
05:31PM 33.6240 -118.4560 124° Southeast 343 395 9,700 2,460 Climbing FlightAware
05:31PM 33.6200 -118.4280 100° East 342 394 10,400 3,120 Climbing FlightAware
05:32PM 33.6310 -118.3830 74° East 338 389 11,800 2,640 Climbing FlightAware
05:32PM 33.6640 -118.3080 62° Northeast 348 400 13,500 1,920 Climbing FlightAware
05:33PM 33.7010 -118.2270 61° Northeast 373 429 14,700 1,620 Climbing FlightAware
05:34PM 33.7360 -118.1550 60° Northeast 392 451 15,800 1,620 Climbing FlightAware
05:34PM 33.7750 -118.0760 59° Northeast 412 474 16,900 1,380 Climbing FlightAware
05:35PM 33.8250 -118.0140 46° Northeast 437 503 17,600 1,020 Climbing FlightAware
05:36PM 33.8960 -117.9520 36° Northeast 463 533 18,300 1,440 Climbing FlightAware
05:37PM 33.9720 -117.8840 37° Northeast 466 536 19,700 1,680 Climbing FlightAware
05:37PM 34.0310 -117.8300 37° Northeast 478 550 20,500 1,440 Climbing FlightAware
05:38PM 34.1060 -117.7550 40° Northeast 485 558 21,600 1,380 Climbing FlightAware
05:38PM 34.1660 -117.6750 48° Northeast 493 567 22,500 1,320 Climbing FlightAware
05:39PM 34.2290 -117.5890 48° Northeast 503 579 23,400 2,040 Climbing FlightAware
05:40PM 34.2950 -117.5000 48° Northeast 488 562 25,400 1,560 Climbing FlightAware
05:41PM 34.3580 -117.4130 49° Northeast 510 587 25,700 480 Climbing FlightAware
05:41PM 34.4200 -117.3280 49° Northeast 527 606 26,100 720 Climbing FlightAware
05:42PM 34.4820 -117.2420 49° Northeast 538 619 26,700 1,140 Climbing FlightAware
05:43PM 34.5480 -117.1540 48° Northeast 539 620 27,600 1,440 Climbing FlightAware
05:43PM 34.6190 -117.0570 48° Northeast 534 615 28,700 1,080 Climbing FlightAware
05:44PM 34.6960 -116.9510 49° Northeast 531 611 29,400 1,200 Climbing FlightAware
05:46PM 34.8330 -116.7610 49° Northeast 529 609 31,600 1,380 Climbing FlightAware
05:46PM 34.9170 -116.6420 49° Northeast 528 608 32,500 900 Climbing FlightAware
05:47PM 34.9920 -116.5390 48° Northeast 533 613 33,000 300 Climbing FlightAware
05:48PM 35.0690 -116.4450 45° Northeast 536 617 33,000  Level FlightAware
05:48PM 35.1370 -116.3610 45° Northeast 535 616 33,000  Level FlightAware
05:49PM 35.2130 -116.2660 46° Northeast 534 615 33,000  Level FlightAware
05:50PM 35.2800 -116.1840 45° Northeast 534 615 33,000  Level FlightAware
05:50PM 35.3470 -116.0990 46° Northeast 534 615 33,000  Level FlightAware
05:51PM 35.4270 -115.9970 46° Northeast 533 613 33,000  Level FlightAware
05:52PM 35.4900 -115.9160 46° Northeast 536 617 33,000  Level FlightAware
05:53PM 35.5550 -115.8350 45° Northeast 536 617 33,000  Level FlightAware
05:53PM 35.6340 -115.7340 46° Northeast 537 618 33,000  Level FlightAware
05:54PM 35.7030 -115.6460 46° Northeast 536 617 33,000  Level FlightAware
05:55PM 35.7810 -115.5450 46° Northeast 538 619 33,000  Level FlightAware
05:55PM 35.8500 -115.4580 46° Northeast 538 619 33,000  Level FlightAware
05:56PM 35.9260 -115.3600 46° Northeast 540 621 33,000  Level FlightAware
05:57PM 35.9960 -115.2690 46° Northeast 541 623 33,000  Level FlightAware
05:57PM 36.0650 -115.1790 47° Northeast 542 624 33,000  Level FlightAware
05:58PM 36.1430 -115.0830 45° Northeast 541 623 33,000  Level FlightAware
05:59PM 36.2150 -114.9980 44° Northeast 539 620 33,000  Level FlightAware
06:00PM 36.3320 -114.8620 43° Northeast 538 619 33,000  Level FlightAware
06:01PM 36.4290 -114.7460 44° Northeast 538 619 33,000  Level FlightAware
06:02PM 36.5270 -114.6270 44° Northeast 538 619 33,000  Level FlightAware
06:02PM 36.5970 -114.5430 44° Northeast 538 619 33,000  Level FlightAware
06:03PM 36.6760 -114.4480 44° Northeast 539 620 33,000  Level FlightAware
06:04PM 36.7470 -114.3590 45° Northeast 538 619 33,000  Level FlightAware
06:05PM 36.8270 -114.2630 44° Northeast 538 619 33,000  Level FlightAware
06:05PM 36.8990 -114.1740 45° Northeast 538 619 33,000  Level FlightAware
06:06PM 36.9670 -114.0920 44° Northeast 538 619 33,000  Level FlightAware
06:07PM 37.0510 -113.9890 44° Northeast 538 619 33,000  Level FlightAware
06:07PM 37.1190 -113.9040 45° Northeast 539 620 33,000  Level FlightAware
06:08PM 37.1800 -113.8290 44° Northeast 540 621 33,000  Level FlightAware
06:09PM 37.2640 -113.7260 44° Northeast 540 621 33,000  Level FlightAware
06:09PM 37.3270 -113.6480 45° Northeast 540 621 33,000  Level FlightAware
06:10PM 37.3820 -113.5820 44° Northeast 540 621 33,000  Level FlightAware
06:10PM 37.4370 -113.5150 44° Northeast 540 621 33,000  Level FlightAware
06:11PM 37.5000 -113.4380 44° Northeast 540 621 33,000  Level FlightAware
06:12PM 37.5750 -113.3470 44° Northeast 540 621 33,000  Level FlightAware
06:13PM 37.6300 -113.2800 44° Northeast 540 621 33,000  Level FlightAware
06:14PM 37.7240 -113.1650 44° Northeast 540 621 33,000  Level FlightAware
06:14PM 37.7790 -113.0970 44° Northeast 540 621 33,000  Level FlightAware
06:16PM 37.9410 -112.8990 44° Northeast 540 621 33,000  Level FlightAware
06:17PM 37.9990 -112.8280 44° Northeast 540 621 33,000  Level FlightAware
06:17PM 38.0690 -112.7420 44° Northeast 540 621 33,000  Level FlightAware
06:18PM 38.1210 -112.6780 44° Northeast 540 621 33,000  Level FlightAware
06:22PM 38.6767 -111.9240 47° Northeast 544 626 33,000  Level FlightAware ADS-B
06:23PM 38.7809 -111.7860 46° Northeast 542 624 33,000  Level FlightAware ADS-B
06:23PM 38.8336 -111.7170 46° Northeast 540 621 33,000  Level FlightAware ADS-B
06:24PM 38.9193 -111.6030 46° Northeast 538 619 33,000  Level FlightAware ADS-B
06:25PM 38.9794 -111.5250 45° Northeast 537 618 33,000  Level FlightAware ADS-B
06:25PM 39.0412 -111.4420 46° Northeast 538 619 33,000  Level FlightAware ADS-B
06:26PM 39.0936 -111.3730 46° Northeast 539 620 33,000  Level FlightAware ADS-B
06:26PM 39.1480 -111.2990 47° Northeast 538 619 33,000  Level FlightAware ADS-B
06:27PM 39.2010 -111.2270 46° Northeast 538 619 33,000  Level FlightAware ADS-B
06:27PM 39.2556 -111.1550 46° Northeast 538 619 33,000  Level FlightAware ADS-B
06:28PM 39.2956 -111.0990 47° Northeast 538 619 33,000  Level FlightAware ADS-B
06:28PM 39.3430 -111.0300 48° Northeast 537 618 33,000  Level FlightAware
06:29PM 39.4180 -110.9190 49° Northeast 537 618 33,000  Level FlightAware
06:30PM 39.5200 -110.7650 49° Northeast 536 617 33,000  Level FlightAware
06:31PM 39.6120 -110.6220 50° Northeast 538 619 33,000  Level FlightAware
06:32PM 39.6820 -110.5130 50° Northeast 536 617 33,000  Level FlightAware
06:33PM 39.7540 -110.4020 50° Northeast 537 618 33,000  Level FlightAware
06:33PM 39.8180 -110.3020 50° Northeast 536 617 33,000  Level FlightAware
06:34PM 39.8890 -110.1910 50° Northeast 533 613 33,000  Level FlightAware
06:35PM 39.9570 -110.0850 50° Northeast 533 613 33,000  Level FlightAware
06:35PM 40.0150 -109.9930 51° Northeast 534 615 33,000  Level FlightAware
06:36PM 40.0870 -109.8790 50° Northeast 534 615 33,000  Level FlightAware
06:37PM 40.1530 -109.7750 50° Northeast 535 616 33,000  Level FlightAware
06:38PM 40.2150 -109.6770 50° Northeast 535 616 33,000  Level FlightAware
06:38PM 40.2880 -109.5600 51° Northeast 532 612 33,000  Level FlightAware
06:39PM 40.3330 -109.4900 50° Northeast 532 612 33,000  Level FlightAware
06:40PM 40.4060 -109.3730 51° Northeast 530 610 33,000  Level FlightAware
06:40PM 40.4740 -109.2630 51° Northeast 533 613 33,000  Level FlightAware
06:41PM 40.5370 -109.1620 51° Northeast 533 613 33,000  Level FlightAware
06:42PM 40.6050 -109.0510 51° Northeast 535 616 33,000  Level FlightAware
06:42PM 40.6680 -108.9490 51° Northeast 538 619 33,000  Level FlightAware
06:43PM 40.7330 -108.8420 51° Northeast 538 619 33,000  Level FlightAware
06:44PM 40.7980 -108.7350 51° Northeast 538 619 33,000  Level FlightAware
06:44PM 40.8540 -108.6430 51° Northeast 537 618 33,000  Level FlightAware
06:45PM 40.9170 -108.5400 51° Northeast 535 616 33,000  Level FlightAware
06:46PM 40.9780 -108.4380 52° Northeast 535 616 33,000  Level FlightAware
06:46PM 41.0490 -108.3210 51° Northeast 535 616 33,000  Level FlightAware
06:47PM 41.1180 -108.2070 51° Northeast 535 616 33,000  Level FlightAware
06:48PM 41.1790 -108.1050 52° Northeast 533 613 33,000  Level FlightAware
06:49PM 41.2420 -108.0000 51° Northeast 531 611 33,000  Level FlightAware
06:49PM 41.3040 -107.8940 52° Northeast 531 611 33,000  Level FlightAware
06:50PM 41.3720 -107.7790 52° Northeast 529 609 33,000  Level FlightAware
06:51PM 41.4320 -107.6770 52° Northeast 529 609 33,000  Level FlightAware
06:51PM 41.4990 -107.5630 52° Northeast 531 611 33,000  Level FlightAware
06:52PM 41.5590 -107.4600 52° Northeast 530 610 33,000  Level FlightAware
06:53PM 41.6220 -107.3520 52° Northeast 530 610 33,000  Level FlightAware
06:54PM 41.6890 -107.2400 51° Northeast 530 610 33,000  Level FlightAware
06:54PM 41.7360 -107.1590 52° Northeast 530 610 33,000  Level FlightAware
06:55PM 41.7980 -107.0530 52° Northeast 530 610 33,000  Level FlightAware
06:56PM 41.8450 -106.9720 52° Northeast 530 610 33,000  Level FlightAware
06:56PM 41.9070 -106.8660 52° Northeast 530 610 33,000  Level FlightAware
06:57PM 41.9540 -106.7840 52° Northeast 530 610 33,000  Level FlightAware
06:58PM 42.0340 -106.6470 52° Northeast 530 610 33,000  Level FlightAware
06:59PM 42.0970 -106.5390 52° Northeast 530 610 33,000  Level FlightAware
06:59PM 42.1940 -106.2700 64° Northeast 534 615 33,000  Level FlightAware
07:00PM 42.2340 -106.1840 58° Northeast 534 615 33,000  Level FlightAware
07:01PM 42.2880 -106.0680 58° Northeast 534 615 33,000  Level FlightAware
07:01PM 42.3280 -105.9820 58° Northeast 534 615 33,000  Level FlightAware
07:02PM 42.3810 -105.8660 58° Northeast 534 615 33,000  Level FlightAware
07:03PM 42.4190 -105.7840 58° Northeast 534 615 33,000  Level FlightAware
07:03PM 42.4590 -105.6970 58° Northeast 534 615 33,000  Level FlightAware
07:04PM 42.5120 -105.5810 58° Northeast 534 615 33,000  Level FlightAware
07:05PM 42.5530 -105.4920 58° Northeast 534 615 33,000  Level FlightAware
07:05PM 42.5930 -105.4050 58° Northeast 534 615 33,000  Level FlightAware
07:06PM 42.6480 -105.2860 58° Northeast 534 615 33,000 1,500 Level FlightAware
07:07PM 42.7545 -105.0410 59° Northeast 532 612 34,700 1,980 Climbing FlightAware ADS-B
07:07PM 42.8067 -104.9270 58° Northeast 535 616 35,000 180 Climbing FlightAware ADS-B
07:08PM 42.8614 -104.8030 59° Northeast 535 616 35,000  Level FlightAware ADS-B
07:09PM 42.9065 -104.7010 59° Northeast 536 617 35,000  Level FlightAware ADS-B
07:09PM 42.9514 -104.5970 59° Northeast 536 617 35,000  Level FlightAware ADS-B
07:10PM 42.9897 -104.5110 59° Northeast 535 616 35,000  Level FlightAware ADS-B
07:10PM 43.0346 -104.4090 59° Northeast 537 618 35,000  Level FlightAware ADS-B
07:11PM 43.0740 -104.3190 59° Northeast 539 620 35,000  Level FlightAware ADS-B
07:11PM 43.1198 -104.2130 59° Northeast 541 623 35,000  Level FlightAware ADS-B
07:12PM 43.1410 -104.1740 53° Northeast 536 617 35,000  Level FlightAware ADS-B
07:12PM 43.2200 -104.0736 53° Northeast 529 609 35,000  Level Denver Center
07:14PM 43.3475 -103.9367 38° Northeast 522 601 35,000  Level Denver Center
07:15PM 43.4564 -103.8194 38° Northeast 522 601 35,000  Level Denver Center
07:16PM 43.5833 -103.6847 38° Northeast 515 593 35,000  Level Denver Center
07:17PM 43.6925 -103.5694 37° Northeast 515 593 35,000  Level Denver Center
07:18PM 43.8214 -103.4358 37° Northeast 517 595 35,000  Level Denver Center
07:19PM 43.9306 -103.3253 36° Northeast 512 589 35,000  Level Denver Center
07:20PM 44.0297 -103.1506 52° Northeast 528 608 35,000  Level Denver Center
07:21PM 44.0889 -102.9692 66° East 539 620 35,000  Level Denver Center
07:22PM 44.1522 -102.7758 65° Northeast 544 626 35,000  Level Denver Center
07:23PM 44.2108 -102.5808 67° East 545 627 35,000  Level Denver Center
07:24PM 44.2711 -102.3864 67° East 546 628 35,000  Level Denver Center
07:25PM 44.3419 -102.1517 67° East 547 629 35,000  Level Denver Center
07:26PM 44.4008 -101.9575 67° East 545 627 35,000  Level Denver Center
07:27PM 44.4606 -101.7656 66° East 541 623 35,000  Level Denver Center
07:28PM 44.5172 -101.5719 68° East 537 618 35,000  Level Denver Center
07:29PM 44.5744 -101.3772 68° East 540 621 35,000  Level Denver Center
07:30PM 44.6328 -101.1822 67° East 542 624 35,000  Level Denver Center
07:31PM 44.7000 -100.9489 68° East 539 620 35,000  Level Denver Center
07:32PM 44.7689 -100.7150 67° East 542 624 35,000  Level Minneapolis Center
07:33PM 44.8253 -100.5189 68° East 542 624 35,000  Level Minneapolis Center
07:35PM 44.8933 -100.2828 68° East 543 625 35,000  Level Minneapolis Center
07:36PM 44.9478 -100.0875 68° East 542 624 35,000  Level Minneapolis Center
07:37PM 44.9981 -99.8967 70° East 541 623 35,000  Level Minneapolis Center
07:38PM 45.0683 -99.6603 67° East 552 635 35,000  Level Minneapolis Center
07:39PM 45.1233 -99.4628 68° East 547 629 35,000  Level Minneapolis Center
07:40PM 45.1781 -99.2644 69° East 544 626 35,000  Level Minneapolis Center
07:41PM 45.2319 -99.0658 69° East 542 624 35,000  Level Minneapolis Center
07:46PM 45.5520 -98.0090 69° East 533 613 35,000  Level FlightAware
07:47PM 45.5990 -97.8820 62° Northeast 533 613 35,000  Level FlightAware
07:47PM 45.6390 -97.7730 62° Northeast 532 612 35,000  Level FlightAware
07:48PM 45.6890 -97.6410 61° Northeast 532 612 35,000  Level FlightAware
07:49PM 45.7390 -97.4980 63° Northeast 534 615 35,000  Level FlightAware
07:49PM 45.7900 -97.3570 63° Northeast 534 615 35,000  Level FlightAware
07:50PM 45.8350 -97.2340 62° Northeast 534 615 35,000  Level FlightAware
07:51PM 45.8850 -97.0920 63° Northeast 534 615 35,000  Level FlightAware
07:52PM 45.9290 -96.9690 63° Northeast 534 615 35,000  Level FlightAware
07:52PM 45.9790 -96.8300 63° Northeast 535 616 35,000  Level FlightAware
07:53PM 46.0180 -96.7200 63° Northeast 535 616 35,000  Level FlightAware
07:54PM 46.0670 -96.5800 63° Northeast 535 616 35,000  Level FlightAware
07:54PM 46.1100 -96.4590 63° Northeast 534 615 35,000  Level FlightAware
07:55PM 46.1500 -96.3450 63° Northeast 534 615 35,000  Level FlightAware
07:56PM 46.2000 -96.1980 64° Northeast 533 613 35,000  Level FlightAware
07:56PM 46.2440 -96.0710 63° Northeast 533 613 35,000  Level FlightAware
07:57PM 46.2920 -95.9310 64° Northeast 533 613 35,000  Level FlightAware
07:58PM 46.3360 -95.8060 63° Northeast 532 612 35,000  Level FlightAware
07:58PM 46.3780 -95.6780 65° Northeast 533 613 35,000  Level FlightAware
07:59PM 46.4270 -95.5340 64° Northeast 533 613 35,000  Level FlightAware
08:00PM 46.4710 -95.4050 64° Northeast 536 617 35,000  Level FlightAware
08:00PM 46.5180 -95.2630 64° Northeast 538 619 35,000  Level FlightAware
08:01PM 46.5640 -95.1270 64° Northeast 538 619 35,000  Level FlightAware
08:02PM 46.6110 -94.9830 65° Northeast 538 619 35,000  Level FlightAware
08:03PM 46.6540 -94.8560 64° Northeast 538 619 35,000  Level FlightAware
08:03PM 46.7010 -94.7090 65° Northeast 537 618 35,000  Level FlightAware
08:04PM 46.7430 -94.5820 64° Northeast 535 616 35,000  Level FlightAware
08:05PM 46.7900 -94.4360 65° Northeast 535 616 35,000  Level FlightAware
08:05PM 46.8320 -94.3050 65° Northeast 536 617 35,000  Level FlightAware
08:06PM 46.8760 -94.1670 65° Northeast 536 617 35,000  Level FlightAware
08:07PM 46.9210 -94.0300 64° Northeast 536 617 35,000  Level FlightAware
08:07PM 46.9590 -93.9080 65° Northeast 535 616 35,000  Level FlightAware
08:08PM 47.0080 -93.7530 65° Northeast 535 616 35,000  Level FlightAware
08:09PM 47.0530 -93.6090 65° Northeast 537 618 35,000  Level FlightAware
08:10PM 47.0950 -93.4760 65° Northeast 539 620 35,000  Level FlightAware
08:10PM 47.1360 -93.3460 65° Northeast 540 621 35,000  Level FlightAware
08:11PM 47.1880 -93.1730 66° East 539 620 35,000  Level FlightAware
08:12PM 47.2300 -93.0360 66° East 539 620 35,000  Level FlightAware
08:12PM 47.2760 -92.8890 65° Northeast 540 621 35,000  Level FlightAware
08:13PM 47.3160 -92.7570 66° East 542 624 35,000  Level FlightAware
08:14PM 47.3610 -92.6060 66° East 542 624 35,000  Level FlightAware
08:15PM 47.4010 -92.4740 66° East 541 623 35,000  Level FlightAware
08:15PM 47.4460 -92.3220 66° East 543 625 35,000  Level FlightAware
08:16PM 47.4800 -92.2070 66° East 543 625 35,000  Level FlightAware
08:17PM 47.5200 -92.0740 66° East 541 623 35,000  Level FlightAware
08:17PM 47.5630 -91.9250 67° East 541 623 35,000  Level FlightAware
08:18PM 47.6000 -91.7990 66° East 544 626 35,000  Level FlightAware
08:19PM 47.6400 -91.6620 67° East 545 627 35,000  Level FlightAware
08:19PM 47.6810 -91.5170 67° East 545 627 35,000  Level FlightAware
08:20PM 47.7220 -91.3770 66° East 545 627 35,000  Level FlightAware
08:21PM 47.7660 -91.2210 67° East 545 627 35,000  Level FlightAware
08:21PM 47.8040 -91.0870 67° East 545 627 35,000  Level FlightAware
08:22PM 47.8480 -90.9320 67° East 543 625 35,000  Level FlightAware
08:23PM 47.8860 -90.7930 68° East 544 626 35,000  Level FlightAware
08:23PM 47.9200 -90.6730 67° East 545 627 35,000  Level FlightAware
08:24PM 47.9590 -90.5310 68° East 544 626 35,000  Level FlightAware
08:25PM 47.9970 -90.3920 68° East 544 626 35,000  Level FlightAware
08:25PM 48.0390 -90.2380 68° East 545 627 35,000  Level FlightAware
08:26PM 48.0800 -90.0890 68° East 545 627 35,000  Level FlightAware
08:27PM 48.1190 -89.9490 67° East 546 628 35,000  Level FlightAware
08:28PM 48.1600 -89.7950 68° East 546 628 35,000  Level FlightAware
08:28PM 48.2030 -89.6340 68° East 545 627 35,000  Level FlightAware
08:29PM 48.2320 -89.5270 68° East 545 627 35,000  Level FlightAware
08:29PM 48.2520 -89.4520 68° East 545 627 35,000  Level FlightAware
08:31PM 48.3130 -89.2220 68° East 545 627 35,000  Level FlightAware
08:31PM 48.3520 -89.0790 68° East 545 627 35,000  Level FlightAware
08:32PM 48.3810 -88.9710 68° East 545 627 35,000  Level FlightAware
08:33PM 48.4190 -88.8270 68° East 545 627 35,000  Level FlightAware
08:33PM 48.4480 -88.7190 68° East 545 627 35,000  Level FlightAware
08:34PM 48.4770 -88.6120 68° East 545 627 35,000  Level FlightAware
08:35PM 48.5060 -88.5040 68° East 545 627 35,000  Level FlightAware
08:35PM 48.5440 -88.3600 68° East 545 627 35,000  Level FlightAware
08:36PM 48.5730 -88.2510 68° East 545 627 35,000  Level FlightAware
08:37PM 48.6120 -88.1070 68° East 545 627 35,000  Level FlightAware
08:37PM 48.6410 -87.9990 68° East 545 627 35,000  Level FlightAware
08:38PM 49.0000 -87.8333 68° East 520 598 35,000  Level Montreal Center
08:40PM 49.0833 -87.5500 66° East 520 598 35,000  Level Winnipeg Center
08:41PM 49.1667 -87.3500 57° Northeast 520 598 35,000  Level Winnipeg Center
08:42PM 49.2333 -87.1667 61° Northeast 520 598 35,000  Level Winnipeg Center
08:43PM 49.3167 -86.9833 55° Northeast 520 598 35,000  Level Winnipeg Center
08:44PM 49.4000 -86.8000 55° Northeast 520 598 35,000  Level Winnipeg Center
08:45PM 49.4667 -86.6167 61° Northeast 520 598 35,000  Level Winnipeg Center
08:46PM 49.5500 -86.4167 57° Northeast 520 598 35,000  Level Winnipeg Center
08:47PM 49.6333 -86.2500 52° Northeast 520 598 35,000  Level Winnipeg Center
08:48PM 49.7000 -86.0500 63° Northeast 520 598 35,000  Level Winnipeg Center
08:49PM 49.7833 -85.8667 55° Northeast 520 598 35,000  Level Winnipeg Center
08:50PM 49.8667 -85.6667 57° Northeast 520 598 35,000  Level Winnipeg Center
08:51PM 49.9333 -85.5000 58° Northeast 520 598 35,000  Level Winnipeg Center
08:52PM 50.0167 -85.3000 57° Northeast 520 598 35,000  Level Winnipeg Center
08:53PM 50.1000 -85.1167 55° Northeast 520 598 35,000  Level Winnipeg Center
08:54PM 50.1833 -84.9167 57° Northeast 520 598 35,000  Level Winnipeg Center
08:54PM 50.2500 -84.8500 33° Northeast 510 587 35,000  Level Montreal Center
08:55PM 50.3167 -84.6500 62° Northeast 510 587 35,000  Level Montreal Center
08:56PM 50.4000 -84.4833 52° Northeast 510 587 35,000  Level Montreal Center
08:57PM 50.4833 -84.2833 57° Northeast 510 587 35,000  Level Montreal Center
08:58PM 50.5500 -84.0833 62° Northeast 510 587 35,000  Level Montreal Center
08:59PM 50.6333 -83.9000 54° Northeast 520 598 35,000  Level Montreal Center
09:00PM 50.7000 -83.6833 64° Northeast 510 587 35,000  Level Montreal Center
09:01PM 50.7667 -83.5000 60° Northeast 510 587 35,000  Level Montreal Center
09:02PM 50.8500 -83.3000 57° Northeast 510 587 35,000  Level Montreal Center
09:03PM 50.9167 -83.1000 62° Northeast 510 587 35,000  Level Montreal Center
09:04PM 51.0000 -82.9000 56° Northeast 510 587 35,000  Level Montreal Center
09:05PM 51.0500 -82.7167 66° East 510 587 35,000  Level Montreal Center
09:06PM 51.1333 -82.5167 56° Northeast 510 587 35,000  Level Montreal Center
09:07PM 51.2000 -82.3167 62° Northeast 510 587 35,000  Level Montreal Center
09:08PM 51.2833 -82.1333 54° Northeast 510 587 35,000  Level Montreal Center
09:09PM 51.3500 -81.9000 65° Northeast 520 598 35,000  Level Montreal Center
09:10PM 51.4167 -81.7167 60° Northeast 510 587 35,000  Level Montreal Center
09:11PM 51.5000 -81.5167 56° Northeast 510 587 35,000  Level Montreal Center
09:12PM 51.5500 -81.3000 70° East 510 587 35,000  Level Montreal Center
09:13PM 51.6333 -81.1000 56° Northeast 510 587 35,000  Level Montreal Center
09:14PM 51.7000 -80.9167 60° Northeast 510 587 35,000  Level Montreal Center
09:15PM 51.7667 -80.7000 63° Northeast 510 587 35,000  Level Montreal Center
09:16PM 51.8333 -80.4833 63° Northeast 520 598 35,000  Level Montreal Center
09:17PM 51.9167 -80.2833 56° Northeast 520 598 35,000  Level Montreal Center
09:18PM 51.9667 -80.1000 66° East 520 598 35,000  Level Montreal Center
09:19PM 52.0500 -79.9000 56° Northeast 510 587 35,000  Level Montreal Center
09:20PM 52.1333 -79.7000 56° Northeast 510 587 35,000  Level Montreal Center
09:21PM 52.2333 -79.5167 48° Northeast 510 587 35,000  Level Montreal Center
09:22PM 52.3167 -79.3167 56° Northeast 520 598 35,000  Level Montreal Center
09:23PM 52.4000 -79.1333 53° Northeast 520 598 35,000  Level Montreal Center
09:24PM 52.5000 -78.9500 48° Northeast 510 587 35,000  Level Montreal Center
09:25PM 52.5833 -78.7667 53° Northeast 520 598 35,000  Level Montreal Center
09:26PM 52.6667 -78.5667 55° Northeast 510 587 35,000  Level Montreal Center
09:27PM 52.7667 -78.4167 42° Northeast 510 587 35,000  Level Montreal Center
09:28PM 52.8333 -78.2167 61° Northeast 500 575 35,000  Level Montreal Center
09:29PM 52.9167 -78.0333 53° Northeast 500 575 35,000  Level Montreal Center
09:30PM 53.0000 -77.8333 55° Northeast 500 575 35,000  Level Montreal Center
09:31PM 53.1000 -77.6500 48° Northeast 500 575 35,000  Level Montreal Center
09:32PM 53.1833 -77.4500 55° Northeast 510 587 35,000  Level Montreal Center
09:33PM 53.2667 -77.2667 53° Northeast 510 587 35,000  Level Montreal Center
09:34PM 53.3333 -77.0667 61° Northeast 510 587 35,000  Level Montreal Center
09:35PM 53.4167 -76.8667 55° Northeast 510 587 35,000  Level Montreal Center
09:36PM 53.5000 -76.6667 55° Northeast 510 587 35,000  Level Montreal Center
09:37PM 53.6000 -76.4667 50° Northeast 520 598 35,000  Level Montreal Center
09:38PM 53.6833 -76.2833 52° Northeast 520 598 35,000  Level Montreal Center
09:39PM 53.7667 -76.0833 55° Northeast 520 598 35,000  Level Montreal Center
09:40PM 53.8500 -75.8500 59° Northeast 530 610 35,000  Level Montreal Center
09:41PM 53.9333 -75.6500 55° Northeast 520 598 35,000  Level Montreal Center
09:42PM 54.0167 -75.4500 55° Northeast 530 610 35,000  Level Montreal Center
09:43PM 54.1000 -75.2500 55° Northeast 520 598 35,000  Level Montreal Center
09:44PM 54.1833 -75.0500 54° Northeast 530 610 35,000  Level Montreal Center
09:45PM 54.2667 -74.8167 58° Northeast 530 610 35,000  Level Montreal Center
09:46PM 54.3500 -74.6000 57° Northeast 540 621 35,000  Level Montreal Center
09:47PM 54.4333 -74.4000 54° Northeast 540 621 35,000  Level Montreal Center
09:48PM 54.5167 -74.2000 54° Northeast 540 621 35,000  Level Montreal Center
09:49PM 54.6000 -73.9500 60° Northeast 540 621 35,000  Level Montreal Center
09:50PM 54.6833 -73.7500 54° Northeast 540 621 35,000  Level Montreal Center
09:51PM 54.7667 -73.5167 58° Northeast 550 633 35,000  Level Montreal Center
09:52PM 54.8500 -73.3000 56° Northeast 540 621 35,000  Level Montreal Center
09:53PM 54.9333 -73.0667 58° Northeast 550 633 35,000  Level Montreal Center
09:54PM 55.0167 -72.8500 56° Northeast 550 633 35,000  Level Montreal Center
09:55PM 55.1167 -72.6000 55° Northeast 550 633 35,000  Level Montreal Center
09:56PM 55.1833 -72.4000 60° Northeast 550 633 35,000  Level Montreal Center
09:57PM 55.2667 -72.1500 60° Northeast 550 633 35,000  Level Montreal Center
09:58PM 55.3500 -71.9333 56° Northeast 560 644 35,000  Level Montreal Center
09:59PM 55.4333 -71.6833 59° Northeast 560 644 35,000  Level Montreal Center
10:00PM 55.5167 -71.4333 59° Northeast 560 644 35,000  Level Montreal Center
10:01PM 55.5833 -71.2167 61° Northeast 560 644 35,000  Level Montreal Center
10:02PM 55.6833 -70.9667 55° Northeast 560 644 35,000  Level Montreal Center
10:03PM 55.7500 -70.7500 61° Northeast 540 621 35,000  Level Montreal Center
10:04PM 55.8333 -70.5000 59° Northeast 560 644 35,000  Level Montreal Center
10:05PM 55.9000 -70.2833 61° Northeast 560 644 35,000  Level Montreal Center
10:06PM 56.0000 -70.0333 54° Northeast 560 644 35,000  Level Montreal Center
10:07PM 56.0667 -69.7833 64° Northeast 560 644 35,100 480 Climbing Montreal Center
10:08PM 56.1500 -69.5500 57° Northeast 550 633 36,000 420 Climbing Montreal Center
10:09PM 56.2333 -69.3000 59° Northeast 550 633 36,000  Level Montreal Center
10:10PM 56.3000 -69.0667 63° Northeast 550 633 36,000  Level Montreal Center
10:11PM 56.3833 -68.8333 57° Northeast 550 633 36,000  Level Montreal Center
10:12PM 56.4500 -68.5833 64° Northeast 550 633 36,000  Level Montreal Center
10:13PM 56.5333 -68.3500 57° Northeast 550 633 36,000  Level Montreal Center
10:14PM 56.6167 -68.1167 57° Northeast 550 633 36,000  Level Montreal Center
10:15PM 56.6833 -67.8667 64° Northeast 550 633 36,000  Level Montreal Center
10:16PM 56.7500 -67.6333 62° Northeast 540 621 36,000  Level Montreal Center
10:17PM 56.8333 -67.3667 60° Northeast 540 621 36,000  Level Montreal Center
10:18PM 56.9167 -67.1333 57° Northeast 550 633 36,000  Level Montreal Center
10:19PM 56.9833 -66.9000 62° Northeast 550 633 36,000  Level Montreal Center
10:20PM 57.0500 -66.6333 65° Northeast 550 633 36,000  Level Montreal Center
10:21PM 57.1333 -66.3833 58° Northeast 550 633 36,000  Level Montreal Center
10:22PM 57.2000 -66.1500 62° Northeast 550 633 36,000  Level Montreal Center
10:23PM 57.2667 -65.8833 65° Northeast 560 644 36,000  Level Montreal Center
10:24PM 57.3500 -65.6500 56° Northeast 550 633 36,000  Level Montreal Center
10:25PM 57.4167 -65.4000 64° Northeast 550 633 36,000  Level Montreal Center
10:26PM 57.5000 -65.1333 60° Northeast 560 644 36,000  Level Montreal Center
10:27PM 57.5667 -64.8500 66° East 550 633 36,000  Level Montreal Center
10:28PM 57.6333 -64.6167 62° Northeast 560 644 36,000  Level Montreal Center
10:29PM 57.7000 -64.3333 66° East 560 644 36,000  Level Montreal Center
10:30PM 57.7833 -64.0833 58° Northeast 560 644 36,000  Level Montreal Center
10:31PM 57.8333 -63.8167 70° East 560 644 36,000  Level Montreal Center
10:32PM 57.9167 -63.5667 58° Northeast 560 644 36,000  Level Montreal Center
10:33PM 57.9667 -63.2833 71° East 560 644 36,000  Level Montreal Center
10:34PM 58.0500 -63.0333 58° Northeast 560 644 36,000  Level Montreal Center
10:35PM 58.1000 -62.7667 70° East 560 644 36,000  Level Montreal Center
10:36PM 58.1833 -62.5000 59° Northeast 560 644 36,000  Level Montreal Center
10:37PM 58.2500 -62.2500 63° Northeast 560 644 36,000  Level Montreal Center
10:38PM 58.3167 -61.9667 66° East 560 644 36,000  Level Montreal Center
10:39PM 58.3833 -61.6833 66° East 560 644 36,000  Level Montreal Center
10:40PM 58.4333 -61.4000 71° East 560 644 36,000  Level Montreal Center
10:41PM 58.5167 -61.1333 59° Northeast 560 644 36,000  Level Montreal Center
10:42PM 58.5667 -60.8500 71° East 560 644 36,000  Level Montreal Center
10:43PM 58.6333 -60.5833 64° Northeast 560 644 36,000  Level Montreal Center
10:44PM 58.6500 -60.5167 82° East 561 646 36,000  Level ETMS Enhanced Traffic Management System
10:44PM 58.6667 -60.3167 82° East 560 644 36,000  Level Montreal Center
10:45PM 58.6833 -60.0000 84° East 570 656 36,000  Level Montreal Center
10:46PM 58.6500 -60.5167 82° East 561 646 36,000  Level ETMS Enhanced Traffic Management System
10:47PM 58.7333 -59.4000 82° East 570 656 36,000  Level Montreal Center
10:48PM 58.7500 -59.0833 84° East 580 667 36,000  Level Montreal Center
10:49PM 58.7667 -58.7833 84° East 570 656 36,000  Level Montreal Center
10:50PM 58.8000 -58.4667 78° East 580 667 36,000  Level Montreal Center
10:52PM 58.8167 -58.1667 84° East 580 667 36,000  Level Gander Center
10:53PM 58.8333 -57.8333 84° East 580 667 36,000  Level Gander Center
10:54PM 58.8500 -57.5500 83° East 590 679 36,000  Level Gander Center
10:55PM 58.8667 -57.2167 84° East 580 667 36,000  Level Gander Center
10:56PM 58.8833 -56.9000 84° East 590 679 36,000  Level Gander Center
10:57PM 58.8833 -56.6000 90° East 580 667 36,000  Level Gander Center
10:58PM 58.9167 -56.2833 78° East 590 679 36,000  Level Gander Center
10:59PM 58.9167 -55.9500 90° East 590 679 36,000  Level Gander Center
11:00PM 58.9333 -55.6333 84° East 590 679 36,000  Level Gander Center
11:01PM 58.9333 -55.3333 90° East 590 679 36,000  Level Gander Center
11:02PM 58.9500 -55.0500 83° East 590 679 36,000  Level Gander Center
11:03PM 58.9500 -54.6833 90° East 590 679 36,000  Level Gander Center
11:04PM 58.9667 -54.4000 83° East 590 679 36,000  Level Gander Center
11:05PM 58.9833 -54.0667 84° East 590 679 36,000  Level Gander Center
11:06PM 58.9833 -53.7500 90° East 590 679 36,000  Level Gander Center
11:07PM 59.0000 -53.4500 84° East 590 679 36,000  Level Gander Center
11:08PM 58.9833 -53.1167 95° East 580 667 36,000  Level Gander Center
11:09PM 59.0000 -52.8000 84° East 580 667 36,000  Level Gander Center
11:10PM 59.0000 -52.5000 90° East 580 667 36,000  Level Gander Center
11:11PM 59.0000 -52.2167 90° East 570 656 36,000  Level Gander Center
11:12PM 59.0167 -51.8833 84° East 570 656 36,000  Level Gander Center
11:14PM 59.0147 -51.3434 90° East  Level FlightAware Approximate
11:21PM 59.0233 -49.3563 86° East  Level FlightAware Approximate
11:22PM 59.0325 -49.0726 86° East  Level FlightAware Approximate
11:22PM 59.0000 -50.0000 86° East 544 626 36,000  Level ETMS Enhanced Traffic Management System
11:23PM 59.0411 -48.7888 87° East  Level FlightAware Approximate
11:24PM 59.0490 -48.5048 87° East  Level FlightAware Approximate
11:25PM 59.0564 -48.2207 87° East  Level FlightAware Approximate
11:25PM 59.0000 -50.0000 86° East 544 626 36,000  Level ETMS Enhanced Traffic Management System
11:26PM 59.0631 -47.9365 87° East  Level FlightAware Approximate
11:27PM 59.0693 -47.6521 87° East  Level FlightAware Approximate
11:28PM 59.0800 -47.0620 88° East 544 626 36,000  Level FlightAware Transoceanic
11:29PM 59.0843 -46.7676 88° East 544 626 36,000  Level FlightAware Transoceanic
11:30PM 59.0880 -46.4731 89° East 544 626 36,000  Level FlightAware Transoceanic
11:31PM 59.0910 -46.1786 89° East 544 626 36,000  Level FlightAware Transoceanic
11:32PM 59.0933 -45.8839 89° East 544 626 36,000  Level FlightAware Transoceanic
11:33PM 59.0950 -45.5893 89° East 544 626 36,000  Level FlightAware Transoceanic
11:34PM 59.0960 -45.2947 90° East 544 626 36,000  Level FlightAware Transoceanic
11:35PM 59.0964 -45.0000 90° East 544 626 36,000  Level FlightAware Transoceanic
11:36PM 59.0960 -44.7053 90° East 544 626 36,000  Level FlightAware Transoceanic
11:37PM 59.0950 -44.4107 91° East 544 626 36,000  Level FlightAware Transoceanic
11:38PM 59.0933 -44.1161 91° East 544 626 36,000  Level FlightAware Transoceanic
11:39PM 59.0910 -43.8214 91° East 544 626 36,000  Level FlightAware Transoceanic
11:40PM 59.0880 -43.5269 91° East 544 626 36,000  Level FlightAware Transoceanic
11:41PM 59.0843 -43.2324 92° East 544 626 36,000  Level FlightAware Transoceanic
11:42PM 59.0800 -42.9380 92° East 544 626 36,000  Level FlightAware Transoceanic
11:43PM 59.0750 -42.6436 92° East 544 626 36,000  Level FlightAware Transoceanic
11:44PM 59.0693 -42.3494 92° East 544 626 36,000  Level FlightAware Transoceanic
11:45PM 59.0630 -42.0552 93° East 544 626 36,000  Level FlightAware Transoceanic
11:46PM 59.0560 -41.7612 93° East 544 626 36,000  Level FlightAware Transoceanic
11:47PM 59.0483 -41.4673 93° East 544 626 36,000  Level FlightAware Transoceanic
11:48PM 59.0400 -41.1735 93° East 544 626 36,000  Level FlightAware Transoceanic
11:49PM 59.0310 -40.8799 94° East 544 626 36,000  Level FlightAware Transoceanic
11:50PM 59.0213 -40.5864 94° East 544 626 36,000  Level FlightAware Transoceanic
11:51PM 59.0110 -40.2931 94° East 544 626 36,000  Level FlightAware Transoceanic
11:52PM 59.0005 -40.0123 94° East  Level FlightAware Approximate
11:53PM 58.9894 -39.7316 94° East  Level FlightAware Approximate
11:54PM 59.0071 -39.7434 87° East  Level FlightAware Approximate
11:55PM 59.0144 -39.4621 87° East  Level FlightAware Approximate
11:56PM 59.0210 -39.1807 87° East  Level FlightAware Approximate
11:57PM 59.0270 -38.8992 88° East  Level FlightAware Approximate
11:58PM 59.0324 -38.6176 88° East  Level FlightAware Approximate
11:59PM 59.0398 -38.3361 87° East  Level FlightAware Approximate
12:00AM 59.0471 -38.0546 87° East  Level FlightAware Approximate
12:01AM 59.0538 -37.7729 87° East  Level FlightAware Approximate
12:02AM 59.0598 -37.4911 87° East  Level FlightAware Approximate
12:03AM 59.0653 -37.2093 88° East  Level FlightAware Approximate
12:03AM 59.0000 -40.0000 86° East 529 609 36,000  Level ETMS Enhanced Traffic Management System
12:04AM 59.0698 -36.9273 88° East  Level FlightAware Approximate
12:05AM 59.0737 -36.6453 88° East  Level FlightAware Approximate
12:06AM 59.0769 -36.3632 89° East  Level FlightAware Approximate
12:07AM 59.0795 -36.0811 89° East  Level FlightAware Approximate
12:08AM 59.0814 -35.7989 89° East  Level FlightAware Approximate
12:09AM 59.0963 -35.1431 90° East 529 609 36,000  Level FlightAware Transoceanic
12:10AM 59.0963 -34.8569 90° East 529 609 36,000  Level FlightAware Transoceanic
12:11AM 59.0956 -34.5706 90° East 529 609 36,000  Level FlightAware Transoceanic
12:12AM 59.0944 -34.2844 91° East 529 609 36,000  Level FlightAware Transoceanic
12:13AM 59.0925 -33.9982 91° East 529 609 36,000  Level FlightAware Transoceanic
12:14AM 59.0900 -33.7120 91° East 529 609 36,000  Level FlightAware Transoceanic
12:15AM 59.0868 -33.4259 91° East 529 609 36,000  Level FlightAware Transoceanic
12:16AM 59.0830 -33.1399 92° East 529 609 36,000  Level FlightAware Transoceanic
12:17AM 59.0786 -32.8539 92° East 529 609 36,000  Level FlightAware Transoceanic
12:18AM 59.0736 -32.5680 92° East 529 609 36,000  Level FlightAware Transoceanic
12:19AM 59.0679 -32.2821 92° East 529 609 36,000  Level FlightAware Transoceanic
12:20AM 59.0616 -31.9964 93° East 529 609 36,000  Level FlightAware Transoceanic
12:21AM 59.0547 -31.7108 93° East 529 609 36,000  Level FlightAware Transoceanic
12:22AM 59.0471 -31.4253 93° East 529 609 36,000  Level FlightAware Transoceanic
12:23AM 59.0390 -31.1399 93° East 529 609 36,000  Level FlightAware Transoceanic
12:24AM 59.0302 -30.8547 94° East 529 609 36,000  Level FlightAware Transoceanic
12:25AM 59.0207 -30.5697 94° East 529 609 36,000  Level FlightAware Transoceanic
12:26AM 59.0107 -30.2847 94° East 529 609 36,000  Level FlightAware Transoceanic
12:27AM 59.0001 -30.0039 94° East  Level FlightAware Approximate
12:28AM 58.9890 -29.7232 94° East  Level FlightAware Approximate
12:29AM 59.0360 -29.7352 75° East  Level FlightAware Approximate
12:30AM 59.0725 -29.4622 75° East  Level FlightAware Approximate
12:30AM 59.0000 -30.0000 75° East 547 629 36,000  Level ETMS Enhanced Traffic Management System
12:31AM 59.1084 -29.1887 76° East  Level FlightAware Approximate
12:32AM 59.1437 -28.9147 76° East  Level FlightAware Approximate
12:33AM 59.1784 -28.6400 76° East  Level FlightAware Approximate
12:34AM 59.2126 -28.3648 76° East  Level FlightAware Approximate
12:35AM 59.2462 -28.0891 76° East  Level FlightAware Approximate
12:36AM 59.3384 -27.4137 77° East 547 629 36,000  Level FlightAware Transoceanic
12:37AM 59.3728 -27.1232 77° East 547 629 36,000  Level FlightAware Transoceanic
12:38AM 59.4066 -26.8322 77° East 547 629 36,000  Level FlightAware Transoceanic
12:39AM 59.4397 -26.5406 78° East 547 629 36,000  Level FlightAware Transoceanic
12:40AM 59.4721 -26.2484 78° East 547 629 36,000  Level FlightAware Transoceanic
12:41AM 59.5039 -25.9557 78° East 547 629 36,000  Level FlightAware Transoceanic
12:42AM 59.5351 -25.6624 78° East 547 629 36,000  Level FlightAware Transoceanic
12:43AM 59.5656 -25.3686 79° East 547 629 36,000  Level FlightAware Transoceanic
12:44AM 59.5954 -25.0743 79° East 547 629 36,000  Level FlightAware Transoceanic
12:45AM 59.6246 -24.7794 79° East 547 629 36,000  Level FlightAware Transoceanic
12:46AM 59.6531 -24.4840 79° East 547 629 36,000  Level FlightAware Transoceanic
12:47AM 59.6810 -24.1882 80° East 547 629 36,000  Level FlightAware Transoceanic
12:48AM 59.7081 -23.8918 80° East 547 629 36,000  Level FlightAware Transoceanic
12:49AM 59.7346 -23.5950 80° East 547 629 36,000  Level FlightAware Transoceanic
12:50AM 59.7605 -23.2977 80° East 547 629 36,000  Level FlightAware Transoceanic
12:51AM 59.7856 -23.0000 81° East 547 629 36,000  Level FlightAware Transoceanic
12:52AM 59.8101 -22.7018 81° East 547 629 36,000  Level FlightAware Transoceanic
12:53AM 59.8340 -22.4032 81° East 547 629 36,000  Level FlightAware Transoceanic
12:54AM 59.8571 -22.1041 81° East 547 629 36,000  Level FlightAware Transoceanic
12:55AM 59.8796 -21.8047 82° East 547 629 36,000  Level FlightAware Transoceanic
12:56AM 59.9013 -21.5048 82° East 547 629 36,000  Level FlightAware Transoceanic
12:57AM 59.9224 -21.2046 82° East 547 629 36,000  Level FlightAware Transoceanic
12:58AM 59.9429 -20.9040 82° East 547 629 36,000  Level FlightAware Transoceanic
12:59AM 59.9626 -20.6030 83° East 547 629 36,000  Level FlightAware Transoceanic
01:00AM 59.9816 -20.3017 83° East 547 629 36,000  Level FlightAware Transoceanic
01:01AM 59.9992 -20.0139 83° East  Level FlightAware Approximate
01:02AM 60.0161 -19.7258 83° East  Level FlightAware Approximate
01:03AM 59.9584 -19.7516 108° East  Level FlightAware Approximate
01:04AM 59.9119 -19.4775 109° East  Level FlightAware Approximate
01:05AM 59.8648 -19.2041 109° East  Level FlightAware Approximate
01:06AM 59.8171 -18.9315 109° East  Level FlightAware Approximate
01:07AM 59.7688 -18.6597 109° East  Level FlightAware Approximate
01:08AM 59.7201 -18.3887 110° East  Level FlightAware Approximate
01:09AM 59.6707 -18.1185 110° East  Level FlightAware Approximate
01:10AM 59.6208 -17.8491 110° East  Level FlightAware Approximate
01:11AM 59.5703 -17.5805 110° East  Level FlightAware Approximate
01:12AM 59.5193 -17.3127 110° East  Level FlightAware Approximate
01:13AM 59.4678 -17.0457 111° Southeast  Level FlightAware Approximate
01:14AM 59.4157 -16.7795 111° Southeast  Level FlightAware Approximate
01:15AM 59.3630 -16.5142 111° Southeast  Level FlightAware Approximate
01:16AM 59.3097 -16.2497 112° Southeast  Level FlightAware Approximate
01:17AM 59.2552 -15.9867 112° Southeast  Level FlightAware Approximate
01:18AM 59.2002 -15.7245 112° Southeast  Level FlightAware Approximate
01:19AM 59.1446 -15.4631 112° Southeast  Level FlightAware Approximate
01:20AM 59.0885 -15.2026 113° Southeast  Level FlightAware Approximate
01:21AM 59.0318 -14.9430 113° Southeast  Level FlightAware Approximate
01:22AM 58.9747 -14.6842 113° Southeast  Level FlightAware Approximate
01:23AM 58.9170 -14.4263 113° Southeast  Level FlightAware Approximate
01:24AM 58.8588 -14.1692 114° Southeast  Level FlightAware Approximate
01:25AM 58.8002 -13.9130 114° Southeast  Level FlightAware Approximate
01:26AM 58.7410 -13.6577 114° Southeast  Level FlightAware Approximate
01:27AM 58.6813 -13.4032 114° Southeast  Level FlightAware Approximate
01:28AM 58.6211 -13.1496 114° Southeast  Level FlightAware Approximate
01:28AM 58.6580 -12.7770 115° Southeast 514 592 37,000  Level FlightAware
01:29AM 58.5604 -12.8969 115° Southeast  Level FlightAware Approximate
01:29AM 58.6170 -12.5960 113° Southeast 517 595 37,000  Level FlightAware
01:30AM 58.5680 -12.3710 113° Southeast 517 595 37,000  Level FlightAware
01:31AM 58.5190 -12.1610 114° Southeast 520 598 37,000  Level FlightAware
01:31AM 58.4900 -12.0340 114° Southeast 521 600 37,000  Level FlightAware
01:32AM 58.4480 -11.8490 113° Southeast 520 598 37,000  Level FlightAware
01:32AM 58.4050 -11.6700 115° Southeast 518 596 37,000  Level FlightAware
01:33AM 58.3700 -11.5160 113° Southeast 517 595 37,000  Level FlightAware
01:34AM 58.3310 -11.3540 115° Southeast 517 595 37,000  Level FlightAware
01:34AM 58.2910 -11.1850 114° Southeast 516 594 37,000  Level FlightAware
01:35AM 58.2510 -11.0180 114° Southeast 518 596 37,000  Level FlightAware
01:36AM 58.1950 -10.7900 115° Southeast 519 597 37,000  Level FlightAware
01:37AM 58.1550 -10.6240 114° Southeast 518 596 37,000  Level FlightAware
01:37AM 58.1090 -10.4390 115° Southeast 517 595 37,000  Level FlightAware
01:38AM 58.0740 -10.2950 115° Southeast 516 594 37,000  Level FlightAware
01:39AM 58.0270 -10.1060 115° Southeast 518 596 37,000  Level FlightAware
01:39AM 57.9870 -9.9410 115° Southeast 518 596 37,000  Level FlightAware
01:40AM 57.9540 -9.7850 112° Southeast 520 598 37,000  Level FlightAware
01:41AM 57.9160 -9.6140 113° Southeast 519 597 37,000  Level FlightAware
01:41AM 57.8760 -9.4270 112° Southeast 517 595 37,000  Level FlightAware
01:42AM 57.8380 -9.2570 113° Southeast 518 596 37,000  Level FlightAware
01:43AM 57.7980 -9.0750 112° Southeast 513 590 37,000  Level FlightAware
01:43AM 57.7650 -8.9260 112° Southeast 513 590 37,000  Level FlightAware
01:44AM 57.7230 -8.7460 112° Southeast 512 589 37,000  Level FlightAware
01:44AM 57.7208 -8.7312 112° Southeast 496 571 37,000  Level FlightAware UK
01:45AM 57.6928 -8.6086 112° Southeast 498 573 37,000  Level FlightAware UK
01:45AM 57.6850 -8.5780 112° Southeast 512 589 37,000  Level FlightAware
01:46AM 57.6440 -8.3950 113° Southeast 510 587 37,000  Level FlightAware
01:46AM 57.6079 -8.2397 113° Southeast 496 571 37,000  Level FlightAware UK
01:46AM 57.6060 -8.2320 113° Southeast 511 588 37,000  Level FlightAware
01:47AM 57.5680 -8.0670 113° Southeast 510 587 37,000  Level FlightAware
01:48AM 57.5230 -7.8763 113° Southeast 494 568 37,000  Level FlightAware UK
01:48AM 57.5240 -7.8840 113° Southeast 510 587 37,000  Level FlightAware
01:48AM 57.4941 -7.7546 113° Southeast 492 566 37,000  Level FlightAware UK
01:48AM 57.4850 -7.7190 113° Southeast 515 593 37,000  Level FlightAware
01:49AM 57.4510 -7.5770 114° Southeast 516 594 37,000  Level FlightAware
01:50AM 57.4060 -7.3920 114° Southeast 516 594 37,000  Level FlightAware
01:50AM 57.3720 -7.2464 114° Southeast 500 575 37,000  Level FlightAware UK
01:50AM 57.3680 -7.2350 114° Southeast 514 592 37,000  Level FlightAware
01:51AM 57.3240 -7.0510 114° Southeast 512 589 37,000  Level FlightAware
01:52AM 57.2900 -6.9160 114° Southeast 512 589 37,000  Level FlightAware
01:52AM 57.2840 -6.8878 114° Southeast 496 571 37,000  Level FlightAware UK
01:52AM 57.2488 -6.7452 114° Southeast 496 571 37,000  Level FlightAware UK
01:53AM 57.2460 -6.7370 114° Southeast 511 588 37,000  Level FlightAware
01:53AM 57.2132 -6.6029 114° Southeast 496 571 37,000  Level FlightAware UK
01:53AM 57.2070 -6.5790 114° Southeast 511 588 37,000  Level FlightAware
01:54AM 57.1670 -6.4210 115° Southeast 509 586 37,000  Level FlightAware
01:54AM 57.1300 -6.2750 115° Southeast 508 585 37,000  Level FlightAware
01:55AM 57.1235 -6.2469 115° Southeast 496 571 37,000  Level FlightAware UK
01:55AM 57.0933 -6.1290 115° Southeast 494 568 37,000  Level FlightAware UK
01:55AM 57.0850 -6.0980 115° Southeast 509 586 37,000  Level FlightAware
01:56AM 57.0500 -5.9610 115° Southeast 510 587 37,000  Level FlightAware
01:56AM 57.0090 -5.8040 116° Southeast 507 583 37,000  Level FlightAware
01:57AM 56.9718 -5.6587 116° Southeast 500 575 37,000  Level FlightAware UK
01:57AM 56.9640 -5.6330 116° Southeast 505 581 37,000  Level FlightAware
01:58AM 56.9240 -5.4780 115° Southeast 503 579 37,000  Level FlightAware
01:59AM 56.8810 -5.3170 116° Southeast 503 579 37,000  Level FlightAware
01:59AM 56.8360 -5.1480 116° Southeast 502 578 37,000  Level FlightAware
02:00AM 56.7880 -4.9665 116° Southeast 494 568 37,000  Level FlightAware UK
02:01AM 56.7570 -4.8519 116° Southeast 500 575 37,000  Level FlightAware UK
02:01AM 56.7720 -4.9070 116° Southeast 508 585 37,000  Level FlightAware
02:01AM 56.7290 -4.7590 118° Southeast 501 577 37,000  Level FlightAware
02:02AM 56.6580 -4.5410 121° Southeast 502 578 37,000  Level FlightAware
02:03AM 56.6167 -4.4127 121° Southeast 498 573 37,000  Level FlightAware UK
02:03AM 56.6140 -4.4040 121° Southeast 500 575 37,000  Level FlightAware
02:03AM 56.5610 -4.2420 121° Southeast 499 574 37,000  Level FlightAware
02:04AM 56.5190 -4.1120 121° Southeast 499 574 37,000  Level FlightAware
02:04AM 56.5120 -4.0881 121° Southeast 496 571 37,000  Level FlightAware UK
02:05AM 56.4768 -3.9804 121° Southeast 496 571 37,000  Level FlightAware UK
02:05AM 56.4620 -3.9390 121° Southeast 499 574 37,000  Level FlightAware
02:06AM 56.4040 -3.7600 121° Southeast 500 575 37,000  Level FlightAware
02:06AM 56.3992 -3.7439 121° Southeast 492 566 37,000  Level FlightAware UK
02:06AM 56.3637 -3.6365 121° Southeast 494 568 37,000  Level FlightAware UK
02:06AM 56.3560 -3.6130 121° Southeast 502 578 37,000  Level FlightAware
02:07AM 56.3080 -3.4700 121° Southeast 502 578 37,000  Level FlightAware
02:08AM 56.2630 -3.3380 122° Southeast 501 577 37,000  Level FlightAware
02:08AM 56.2060 -3.1680 121° Southeast 500 575 37,000  Level FlightAware
02:09AM 56.1692 -3.0578 121° Southeast 496 571 37,000  Level FlightAware UK
02:09AM 56.1380 -2.9660 121° Southeast 500 575 37,000  Level FlightAware
02:09AM 56.1329 -2.9512 121° Southeast 496 571 37,000  Level FlightAware UK
02:10AM 56.0966 -2.8455 121° Southeast 496 571 37,000  Level FlightAware UK
02:10AM 56.0700 -2.7720 121° Southeast 500 575 37,000  Level FlightAware
02:11AM 56.0239 -2.6349 121° Southeast 494 568 37,000  Level FlightAware UK
02:11AM 56.0350 -2.6700 121° Southeast 500 575 37,000  Level FlightAware
02:12AM 55.9580 -2.4460 121° Southeast 501 577 37,000  Level FlightAware
02:12AM 55.9065 -2.2979 121° Southeast 496 571 37,000  Level FlightAware UK
02:13AM 55.8860 -2.2400 121° Southeast 500 575 37,000  Level FlightAware
02:13AM 55.8340 -2.0930 122° Southeast 501 577 37,000  Level FlightAware
02:14AM 55.7882 -1.9630 122° Southeast 496 571 37,000  Level FlightAware UK
02:14AM 55.7810 -1.9440 122° Southeast 500 575 37,000  Level FlightAware
02:15AM 55.6841 -1.6723 122° Southeast 496 571 37,000  Level FlightAware UK
02:16AM 55.6321 -1.5280 123° Southeast 496 571 37,000  Level FlightAware UK
02:17AM 55.5946 -1.4247 123° Southeast 494 568 37,000  Level FlightAware UK
02:17AM 55.6220 -1.5000 123° Southeast 499 574 37,000  Level FlightAware
02:18AM 55.5360 -1.2680 123° Southeast 498 573 37,000  Level FlightAware
02:19AM 55.4550 -1.0460 123° Southeast 499 574 37,000  Level FlightAware
02:19AM 55.4040 -0.9070 123° Southeast 499 574 37,000  Level FlightAware
02:20AM 55.3610 -0.7909 123° Southeast 494 568 37,000  Level FlightAware UK
02:20AM 55.3510 -0.7680 123° Southeast 500 575 37,000  Level FlightAware
02:21AM 55.2980 -0.6250 123° Southeast 500 575 37,000  Level FlightAware
02:21AM 55.2430 -0.4800 124° Southeast 502 578 37,000  Level FlightAware
02:22AM 55.1880 -0.3350 124° Southeast 502 578 37,000  Level FlightAware
02:23AM 55.1360 -0.1970 123° Southeast 501 577 37,000  Level FlightAware
02:23AM 55.0810 -0.0550 124° Southeast 501 577 37,000  Level FlightAware
02:24AM 55.0280 0.0850 123° Southeast 502 578 37,000  Level FlightAware
02:25AM 54.9821 0.2028 123° Southeast 496 571 37,000  Level FlightAware UK
02:25AM 54.9730 0.2260 123° Southeast 502 578 37,000  Level FlightAware
02:25AM 54.9230 0.3520 125° Southeast 502 578 37,000  Level FlightAware
02:26AM 54.8610 0.5130 124° Southeast 502 578 37,000  Level FlightAware
02:27AM 54.8100 0.6420 124° Southeast 502 578 37,000  Level FlightAware
02:28AM 54.7621 0.7623 124° Southeast 496 571 37,000  Level FlightAware UK
02:28AM 54.7570 0.7740 124° Southeast 503 579 37,000  Level FlightAware
02:28AM 54.6980 0.9200 125° Southeast 503 579 37,000  Level FlightAware
02:29AM 54.6390 1.0690 124° Southeast 503 579 37,000  Level FlightAware
02:30AM 54.5789 1.2188 124° Southeast 494 568 37,000  Level FlightAware UK
02:30AM 54.5391 1.3172 125° Southeast 494 568 37,000  Level FlightAware UK
02:31AM 54.5380 1.3180 125° Southeast 502 578 37,000  Level FlightAware
02:31AM 54.4592 1.5134 125° Southeast 494 568 37,000  Level FlightAware UK
02:31AM 54.4510 1.5310 125° Southeast 503 579 37,000  Level FlightAware
02:32AM 54.4010 1.6540 125° Southeast 502 578 37,000  Level FlightAware
02:33AM 54.3462 1.7870 125° Southeast 494 568 37,000  Level FlightAware UK
02:33AM 54.3420 1.7970 125° Southeast 501 577 37,000  Level FlightAware
02:33AM 54.2880 1.9260 126° Southeast 501 577 37,000  Level FlightAware
02:34AM 54.2320 2.0620 126° Southeast 502 578 37,000  Level FlightAware
02:34AM 54.2252 2.0774 126° Southeast 494 568 37,000  Level FlightAware UK
02:35AM 54.1763 2.1940 126° Southeast 494 568 37,000  Level FlightAware UK
02:35AM 54.1770 2.1900 126° Southeast 502 578 37,000  Level FlightAware
02:36AM 54.1220 2.3190 126° Southeast 502 578 37,000  Level FlightAware
02:36AM 54.1110 2.3487 126° Southeast 494 568 37,000  Level FlightAware UK
02:36AM 54.0570 2.4760 125° Southeast 502 578 37,000  Level FlightAware
02:37AM 53.9965 2.6173 125° Southeast 494 568 37,000 -240 Level FlightAware UK
02:37AM 53.9780 2.6580 125° Southeast 506 582 36,800 -2,280 Descending FlightAware
02:38AM 53.9240 2.7860 126° Southeast 503 579 35,000 -2,820 Descending FlightAware
02:39AM 53.8630 2.9240 127° Southeast 493 567 32,900 -2,520 Descending FlightAware
02:39AM 53.8170 3.0310 126° Southeast 481 554 31,600 -2,400 Descending FlightAware
02:40AM 53.7530 3.1770 127° Southeast 468 539 29,600 -2,520 Descending FlightAware
02:41AM 53.7050 3.2880 126° Southeast 463 533 28,100 -2,400 Descending FlightAware
02:41AM 53.6570 3.3970 127° Southeast 451 519 26,600 -2,460 Descending FlightAware
02:42AM 53.6156 3.4802 127° Southeast 440 506 25,300 -1,860 Descending FlightAware UK
02:42AM 53.6140 3.4790 127° Southeast 445 512 25,300 -900 Level FlightAware
02:42AM 53.5560 3.5280 153° Southeast 431 496 24,700 -2,520 Descending FlightAware
02:43AM 53.4787 3.5458 153° Southeast 416 479 22,800 -3,120 Descending FlightAware UK
02:43AM 53.4810 3.5450 153° Southeast 436 502 22,900 -2,100 Climbing FlightAware
02:44AM 53.4050 3.5630 172° South 433 498 21,300 -2,340 Descending FlightAware
02:44AM 53.3250 3.5970 172° South 424 488 19,800 -2,280 Descending FlightAware
02:45AM 53.2809 3.6183 172° South 402 463 19,100 -1,980 Descending FlightAware UK
02:45AM 53.2140 3.6490 164° South 405 466 17,900 -2,040 Descending FlightAware
02:46AM 53.1410 3.6840 164° South 402 463 16,400 -2,340 Descending FlightAware
02:47AM 53.0654 3.7190 164° South 378 435 14,800 -2,160 Descending FlightAware UK
02:47AM 53.0640 3.7190 164° South 399 459 14,900 -1,920 Climbing FlightAware
02:48AM 52.9830 3.7570 164° South 394 453 13,300 -1,920 Descending FlightAware
02:48AM 52.9230 3.7850 164° South 384 442 12,300 -1,740 Descending FlightAware
02:49AM 52.8530 3.8170 165° South 375 432 11,100 -1,800 Descending FlightAware
02:50AM 52.7790 3.8510 164° South 364 419 9,800 -1,680 Descending FlightAware
02:50AM 52.7270 3.8750 164° South 360 414 9,000 -1,320 Descending FlightAware
02:51AM 52.6840 3.8950 164° South 353 406 8,500 -1,500 Descending FlightAware
02:51AM 52.6450 3.9290 152° Southeast 352 405 7,700 -1,380 Descending FlightAware
02:51AM 52.6070 3.9650 150° Southeast 337 388 7,300 -1,080 Descending FlightAware
02:52AM 52.5920 3.9790 150° Southeast 334 384 7,000 -1,380 Descending FlightAware
02:52AM 52.5490 4.0190 151° Southeast 322 371 6,300 -1,440 Descending FlightAware
02:53AM 52.5140 4.0530 149° Southeast 317 365 5,600 -1,500 Descending FlightAware
02:53AM 52.4800 4.0910 146° Southeast 309 356 4,900 -1,440 Descending FlightAware
02:54AM 52.4500 4.1330 140° Southeast 301 346 4,300 -960 Descending FlightAware
02:54AM 52.4330 4.1560 140° Southeast 291 335 4,200 -480 Descending FlightAware
02:54AM 52.4090 4.1870 142° Southeast 279 321 4,000 -300 Descending FlightAware
02:55AM 52.3850 4.2200 140° Southeast 271 312 4,000 -540 Level FlightAware
02:55AM 52.3640 4.2600 131° Southeast 269 310 3,600 -1,140 Descending FlightAware
02:56AM 52.3410 4.3030 131° Southeast 265 305 3,000 -1,020 Descending FlightAware
02:56AM 52.3200 4.3430 131° Southeast 253 291 2,700 -780 Descending FlightAware
02:56AM 52.2970 4.3870 131° Southeast 239 275 2,300 -780 Descending FlightAware
02:57AM 52.2900 4.3990 134° Southeast 236 272 2,200 -720 Descending FlightAware
02:57AM 52.2670 4.4440 130° Southeast 230 265 1,800 -420 Descending FlightAware
02:58AM 52.2480 4.4810 130° Southeast 214 246 1,800  Level FlightAware
02:58AM 52.2310 4.5150 129° Southeast 200 230 1,800 -180 Level FlightAware
02:58AM 52.2300 4.5290 97° East 194 223 1,700 -180 Descending FlightAware
02:59AM 52.2330 4.5660 82° East 178 205 1,700  Level FlightAware
02:59AM 52.2390 4.6040 76° East 160 184 1,700 -180 Level FlightAware
02:59AM 52.2410 4.6130 70° East 157 181 1,600 -840 Descending FlightAware
03:00AM 52.2540 4.6460 57° Northeast 155 178 1,100 -960 Descending FlightAware
03:01AM 52.2670 4.6800 58° Northeast 154 177 600 -960 Descending FlightAware
03:01AM 52.2780 4.7080 57° Northeast 154 177 200 -900 Descending FlightAware
03:01AM 52.2820 4.7200 61° Northeast 153 176 -1,020 Descending FlightAware
03:02AM 52.2930 4.7460 55° Northeast 150 173  Level FlightAware
03:02AM 52.2980 4.7610 61° Northeast 88 101  Level FlightAware